sensor_id;sensor_type;location;lat;lon;timestamp;temperature;humidity
16160;DHT22;8185;57.818;15.224;2024-03-02T00:01:07;3.90;99.90
16160;DHT22;8185;57.818;15.224;2024-03-02T00:03:37;3.90;99.90
16160;DHT22;8185;57.818;15.224;2024-03-02T00:06:07;3.80;99.90
16160;DHT22;8185;57.818;15.224;2024-03-02T00:08:34;3.80;99.90
16160;DHT22;8185;57.818;15.224;2024-03-02T00:11:03;3.80;99.90
16160;DHT22;8185;57.818;15.224;2024-03-02T00:13:32;3.80;99.90
16160;DHT22;8185;57.818;15.224;2024-03-02T00:16:01;3.70;99.90
16160;DHT22;8185;57.818;15.224;2024-03-02T00:18:32;3.70;99.90
16160;DHT22;8185;57.818;15.224;2024-03-02T00:21:01;3.70;99.90
16160;DHT22;8185;57.818;15.224;2024-03-02T00:23:31;3.70;99.90
16160;DHT22;8185;57.818;15.224;2024-03-02T00:26:01;3.70;99.90
16160;DHT22;8185;57.818;15.224;2024-03-02T00:28:33;3.60;99.90
16160;DHT22;8185;57.818;15.224;2024-03-02T00:31:03;3.60;99.90
16160;DHT22;8185;57.818;15.224;2024-03-02T00:33:33;3.70;99.90
16160;DHT22;8185;57.818;15.224;2024-03-02T00:36:02;3.60;99.90
16160;DHT22;8185;57.818;15.224;2024-03-02T00:38:32;3.60;99.90
16160;DHT22;8185;57.818;15.224;2024-03-02T00:41:04;3.60;99.90
16160;DHT22;8185;57.818;15.224;2024-03-02T00:43:45;3.60;99.90
16160;DHT22;8185;57.818;15.224;2024-03-02T00:46:17;3.60;99.90
16160;DHT22;8185;57.818;15.224;2024-03-02T00:48:53;3.50;99.90
16160;DHT22;8185;57.818;15.224;2024-03-02T00:51:23;3.60;99.90
16160;DHT22;8185;57.818;15.224;2024-03-02T00:53:51;3.50;99.90
16160;DHT22;8185;57.818;15.224;2024-03-02T00:56:23;3.50;99.90
16160;DHT22;8185;57.818;15.224;2024-03-02T00:58:52;3.50;99.90
16160;DHT22;8185;57.818;15.224;2024-03-02T01:01:21;3.50;99.90
16160;DHT22;8185;57.818;15.224;2024-03-02T01:03:50;3.40;99.90
16160;DHT22;8185;57.818;15.224;2024-03-02T01:06:17;3.40;99.90
16160;DHT22;8185;57.818;15.224;2024-03-02T01:08:46;3.40;99.90
16160;DHT22;8185;57.818;15.224;2024-03-02T01:11:17;3.40;99.90
16160;DHT22;8185;57.818;15.224;2024-03-02T01:13:48;3.40;99.90
16160;DHT22;8185;57.818;15.224;2024-03-02T01:16:17;3.40;99.90
16160;DHT22;8185;57.818;15.224;2024-03-02T01:18:45;3.50;99.90
16160;DHT22;8185;57.818;15.224;2024-03-02T01:21:14;3.40;99.90
16160;DHT22;8185;57.818;15.224;2024-03-02T01:23:42;3.40;99.90
16160;DHT22;8185;57.818;15.224;2024-03-02T01:26:09;3.40;99.90
16160;DHT22;8185;57.818;15.224;2024-03-02T01:28:38;3.40;99.90
16160;DHT22;8185;57.818;15.224;2024-03-02T01:31:06;3.30;99.90
16160;DHT22;8185;57.818;15.224;2024-03-02T01:33:35;3.40;99.90
16160;DHT22;8185;57.818;15.224;2024-03-02T01:36:04;3.40;99.90
16160;DHT22;8185;57.818;15.224;2024-03-02T01:38:34;3.40;99.90
16160;DHT22;8185;57.818;15.224;2024-03-02T01:41:02;3.40;99.90
16160;DHT22;8185;57.818;15.224;2024-03-02T01:43:30;3.40;99.90
16160;DHT22;8185;57.818;15.224;2024-03-02T01:45:58;3.40;99.90
16160;DHT22;8185;57.818;15.224;2024-03-02T01:48:27;3.40;99.90
16160;DHT22;8185;57.818;15.224;2024-03-02T01:50:56;3.40;99.90
16160;DHT22;8185;57.818;15.224;2024-03-02T01:53:24;3.40;99.90
16160;DHT22;8185;57.818;15.224;2024-03-02T01:55:52;3.40;99.90
16160;DHT22;8185;57.818;15.224;2024-03-02T01:58:20;3.40;99.90
16160;DHT22;8185;57.818;15.224;2024-03-02T02:00:48;3.40;99.90
16160;DHT22;8185;57.818;15.224;2024-03-02T02:03:16;3.40;99.90
16160;DHT22;8185;57.818;15.224;2024-03-02T02:05:44;3.30;99.90
16160;DHT22;8185;57.818;15.224;2024-03-02T02:08:16;3.30;99.90
16160;DHT22;8185;57.818;15.224;2024-03-02T02:10:43;3.30;99.90
16160;DHT22;8185;57.818;15.224;2024-03-02T02:13:11;3.30;99.90
16160;DHT22;8185;57.818;15.224;2024-03-02T02:15:39;3.30;99.90
16160;DHT22;8185;57.818;15.224;2024-03-02T02:18:08;3.30;99.90
16160;DHT22;8185;57.818;15.224;2024-03-02T02:20:35;3.30;99.90
16160;DHT22;8185;57.818;15.224;2024-03-02T02:23:05;3.30;99.90
16160;DHT22;8185;57.818;15.224;2024-03-02T02:25:36;3.30;99.90
16160;DHT22;8185;57.818;15.224;2024-03-02T02:28:04;3.30;99.90
16160;DHT22;8185;57.818;15.224;2024-03-02T02:30:32;3.30;99.90
16160;DHT22;8185;57.818;15.224;2024-03-02T02:32:59;3.30;99.90
16160;DHT22;8185;57.818;15.224;2024-03-02T02:35:28;3.30;99.90
16160;DHT22;8185;57.818;15.224;2024-03-02T02:37:55;3.30;99.90
16160;DHT22;8185;57.818;15.224;2024-03-02T02:40:26;3.30;99.90
16160;DHT22;8185;57.818;15.224;2024-03-02T02:42:56;3.20;99.90
16160;DHT22;8185;57.818;15.224;2024-03-02T02:45:26;3.30;99.90
16160;DHT22;8185;57.818;15.224;2024-03-02T02:47:53;3.30;99.90
16160;DHT22;8185;57.818;15.224;2024-03-02T02:50:21;3.40;99.90
16160;DHT22;8185;57.818;15.224;2024-03-02T02:52:49;3.30;99.90
16160;DHT22;8185;57.818;15.224;2024-03-02T02:55:17;3.30;99.90
16160;DHT22;8185;57.818;15.224;2024-03-02T02:57:47;3.30;99.90
16160;DHT22;8185;57.818;15.224;2024-03-02T03:00:16;3.30;99.90
16160;DHT22;8185;57.818;15.224;2024-03-02T03:02:47;3.30;99.90
16160;DHT22;8185;57.818;15.224;2024-03-02T03:05:16;3.30;99.90
16160;DHT22;8185;57.818;15.224;2024-03-02T03:07:44;3.30;99.90
16160;DHT22;8185;57.818;15.224;2024-03-02T03:10:13;3.20;99.90
16160;DHT22;8185;57.818;15.224;2024-03-02T03:12:41;3.30;99.90
16160;DHT22;8185;57.818;15.224;2024-03-02T03:15:11;3.30;99.90
16160;DHT22;8185;57.818;15.224;2024-03-02T03:17:40;3.20;99.90
16160;DHT22;8185;57.818;15.224;2024-03-02T03:20:08;3.20;99.90
16160;DHT22;8185;57.818;15.224;2024-03-02T03:22:37;3.20;99.90
16160;DHT22;8185;57.818;15.224;2024-03-02T03:25:05;3.20;99.90
16160;DHT22;8185;57.818;15.224;2024-03-02T03:27:34;3.20;99.90
16160;DHT22;8185;57.818;15.224;2024-03-02T03:30:02;3.20;99.90
16160;DHT22;8185;57.818;15.224;2024-03-02T03:32:34;3.20;99.90
16160;DHT22;8185;57.818;15.224;2024-03-02T03:35:02;3.20;99.90
16160;DHT22;8185;57.818;15.224;2024-03-02T03:37:31;3.20;99.90
16160;DHT22;8185;57.818;15.224;2024-03-02T03:40:00;3.20;99.90
16160;DHT22;8185;57.818;15.224;2024-03-02T03:42:29;3.20;99.90
16160;DHT22;8185;57.818;15.224;2024-03-02T03:44:56;3.20;99.90
16160;DHT22;8185;57.818;15.224;2024-03-02T03:47:24;3.30;99.90
16160;DHT22;8185;57.818;15.224;2024-03-02T03:49:54;3.20;99.90
16160;DHT22;8185;57.818;15.224;2024-03-02T03:52:22;3.20;99.90
16160;DHT22;8185;57.818;15.224;2024-03-02T03:54:51;3.20;99.90
16160;DHT22;8185;57.818;15.224;2024-03-02T03:57:19;3.10;99.90
16160;DHT22;8185;57.818;15.224;2024-03-02T03:59:47;3.10;99.90
16160;DHT22;8185;57.818;15.224;2024-03-02T04:02:15;3.10;99.90
16160;DHT22;8185;57.818;15.224;2024-03-02T04:04:44;3.10;99.90
16160;DHT22;8185;57.818;15.224;2024-03-02T04:07:13;3.10;99.90
16160;DHT22;8185;57.818;15.224;2024-03-02T04:09:41;3.10;99.90
16160;DHT22;8185;57.818;15.224;2024-03-02T04:12:09;3.00;99.90
16160;DHT22;8185;57.818;15.224;2024-03-02T04:14:39;3.10;99.90
16160;DHT22;8185;57.818;15.224;2024-03-02T04:17:09;3.10;99.90
16160;DHT22;8185;57.818;15.224;2024-03-02T04:19:37;3.10;99.90
16160;DHT22;8185;57.818;15.224;2024-03-02T04:22:05;3.10;99.90
16160;DHT22;8185;57.818;15.224;2024-03-02T04:24:35;3.10;99.90
16160;DHT22;8185;57.818;15.224;2024-03-02T04:27:02;3.00;99.90
16160;DHT22;8185;57.818;15.224;2024-03-02T04:29:31;3.10;99.90
16160;DHT22;8185;57.818;15.224;2024-03-02T04:31:58;3.00;99.90
16160;DHT22;8185;57.818;15.224;2024-03-02T04:34:26;3.00;99.90
16160;DHT22;8185;57.818;15.224;2024-03-02T04:36:54;3.10;99.90
16160;DHT22;8185;57.818;15.224;2024-03-02T04:39:22;3.00;99.90
16160;DHT22;8185;57.818;15.224;2024-03-02T04:41:52;3.00;99.90
16160;DHT22;8185;57.818;15.224;2024-03-02T04:44:20;3.00;99.90
16160;DHT22;8185;57.818;15.224;2024-03-02T04:46:48;3.00;99.90
16160;DHT22;8185;57.818;15.224;2024-03-02T04:49:16;3.00;99.90
16160;DHT22;8185;57.818;15.224;2024-03-02T04:51:44;3.00;99.90
16160;DHT22;8185;57.818;15.224;2024-03-02T04:54:13;3.00;99.90
16160;DHT22;8185;57.818;15.224;2024-03-02T04:56:41;3.00;99.90
16160;DHT22;8185;57.818;15.224;2024-03-02T04:59:17;3.00;99.90
16160;DHT22;8185;57.818;15.224;2024-03-02T05:01:46;3.00;99.90
16160;DHT22;8185;57.818;15.224;2024-03-02T05:04:14;3.00;99.90
16160;DHT22;8185;57.818;15.224;2024-03-02T05:06:42;3.00;99.90
16160;DHT22;8185;57.818;15.224;2024-03-02T05:09:11;3.00;99.90
16160;DHT22;8185;57.818;15.224;2024-03-02T05:11:39;3.00;99.90
16160;DHT22;8185;57.818;15.224;2024-03-02T05:14:31;3.00;99.90
16160;DHT22;8185;57.818;15.224;2024-03-02T05:16:59;3.00;99.90
16160;DHT22;8185;57.818;15.224;2024-03-02T05:19:27;3.00;99.90
16160;DHT22;8185;57.818;15.224;2024-03-02T05:21:55;3.00;99.90
16160;DHT22;8185;57.818;15.224;2024-03-02T05:24:23;3.00;99.90
16160;DHT22;8185;57.818;15.224;2024-03-02T05:26:53;3.00;99.90
16160;DHT22;8185;57.818;15.224;2024-03-02T05:29:21;3.00;99.90
16160;DHT22;8185;57.818;15.224;2024-03-02T05:31:51;3.00;99.90
16160;DHT22;8185;57.818;15.224;2024-03-02T05:34:18;3.00;99.90
16160;DHT22;8185;57.818;15.224;2024-03-02T05:36:46;3.20;99.90
16160;DHT22;8185;57.818;15.224;2024-03-02T05:39:14;3.10;99.90
16160;DHT22;8185;57.818;15.224;2024-03-02T05:41:42;3.10;99.90
16160;DHT22;8185;57.818;15.224;2024-03-02T05:44:11;3.00;99.90
16160;DHT22;8185;57.818;15.224;2024-03-02T05:46:39;3.00;99.90
16160;DHT22;8185;57.818;15.224;2024-03-02T05:49:08;3.10;99.90
16160;DHT22;8185;57.818;15.224;2024-03-02T05:51:36;3.10;99.90
16160;DHT22;8185;57.818;15.224;2024-03-02T05:54:05;3.10;99.90
16160;DHT22;8185;57.818;15.224;2024-03-02T05:56:33;3.10;99.90
16160;DHT22;8185;57.818;15.224;2024-03-02T05:59:01;3.10;99.90
16160;DHT22;8185;57.818;15.224;2024-03-02T06:01:39;3.10;99.90
16160;DHT22;8185;57.818;15.224;2024-03-02T06:04:08;3.10;99.90
16160;DHT22;8185;57.818;15.224;2024-03-02T06:06:37;3.10;99.90
16160;DHT22;8185;57.818;15.224;2024-03-02T06:09:06;3.10;99.90
16160;DHT22;8185;57.818;15.224;2024-03-02T06:11:34;3.10;99.90
16160;DHT22;8185;57.818;15.224;2024-03-02T06:14:03;3.10;99.90
16160;DHT22;8185;57.818;15.224;2024-03-02T06:16:30;3.10;99.90
16160;DHT22;8185;57.818;15.224;2024-03-02T06:18:58;3.10;99.90
16160;DHT22;8185;57.818;15.224;2024-03-02T06:21:28;3.10;99.90
16160;DHT22;8185;57.818;15.224;2024-03-02T06:23:56;3.10;99.90
16160;DHT22;8185;57.818;15.224;2024-03-02T06:26:24;3.10;99.90
16160;DHT22;8185;57.818;15.224;2024-03-02T06:28:52;3.10;99.90
16160;DHT22;8185;57.818;15.224;2024-03-02T06:31:19;3.20;99.90
16160;DHT22;8185;57.818;15.224;2024-03-02T06:33:47;3.20;99.90
16160;DHT22;8185;57.818;15.224;2024-03-02T06:36:15;3.10;99.90
16160;DHT22;8185;57.818;15.224;2024-03-02T06:38:45;3.10;99.90
16160;DHT22;8185;57.818;15.224;2024-03-02T06:41:13;3.20;99.90
16160;DHT22;8185;57.818;15.224;2024-03-02T06:43:41;3.20;99.90
16160;DHT22;8185;57.818;15.224;2024-03-02T06:46:09;3.20;99.90
16160;DHT22;8185;57.818;15.224;2024-03-02T06:48:41;3.20;99.90
16160;DHT22;8185;57.818;15.224;2024-03-02T06:51:09;3.20;99.90
16160;DHT22;8185;57.818;15.224;2024-03-02T06:53:37;3.20;99.90
16160;DHT22;8185;57.818;15.224;2024-03-02T06:56:07;3.20;99.90
16160;DHT22;8185;57.818;15.224;2024-03-02T06:58:36;3.30;99.90
16160;DHT22;8185;57.818;15.224;2024-03-02T07:01:04;3.20;99.90
16160;DHT22;8185;57.818;15.224;2024-03-02T07:03:32;3.20;99.90
16160;DHT22;8185;57.818;15.224;2024-03-02T07:06:01;3.20;99.90
16160;DHT22;8185;57.818;15.224;2024-03-02T07:08:28;3.20;99.90
16160;DHT22;8185;57.818;15.224;2024-03-02T07:10:57;3.30;99.90
16160;DHT22;8185;57.818;15.224;2024-03-02T07:13:27;3.30;99.90
16160;DHT22;8185;57.818;15.224;2024-03-02T07:15:55;3.30;99.90
16160;DHT22;8185;57.818;15.224;2024-03-02T07:18:49;3.30;99.90
16160;DHT22;8185;57.818;15.224;2024-03-02T07:21:18;3.30;99.90
16160;DHT22;8185;57.818;15.224;2024-03-02T07:23:48;3.30;99.90
16160;DHT22;8185;57.818;15.224;2024-03-02T07:26:15;3.30;99.90
16160;DHT22;8185;57.818;15.224;2024-03-02T07:28:46;3.40;99.90
16160;DHT22;8185;57.818;15.224;2024-03-02T07:31:14;3.40;99.90
16160;DHT22;8185;57.818;15.224;2024-03-02T07:33:44;3.40;99.90
16160;DHT22;8185;57.818;15.224;2024-03-02T07:36:12;3.40;99.90
16160;DHT22;8185;57.818;15.224;2024-03-02T07:38:41;3.40;99.90
16160;DHT22;8185;57.818;15.224;2024-03-02T07:41:08;3.50;99.90
16160;DHT22;8185;57.818;15.224;2024-03-02T07:43:38;3.50;99.90
16160;DHT22;8185;57.818;15.224;2024-03-02T07:46:08;3.50;99.90
16160;DHT22;8185;57.818;15.224;2024-03-02T07:48:35;3.50;99.90
16160;DHT22;8185;57.818;15.224;2024-03-02T07:51:04;3.60;99.90
16160;DHT22;8185;57.818;15.224;2024-03-02T07:53:31;3.50;99.90
16160;DHT22;8185;57.818;15.224;2024-03-02T07:56:00;3.60;99.90
16160;DHT22;8185;57.818;15.224;2024-03-02T07:58:28;3.60;99.90
16160;DHT22;8185;57.818;15.224;2024-03-02T08:00:58;3.70;99.90
16160;DHT22;8185;57.818;15.224;2024-03-02T08:03:29;3.70;99.90
16160;DHT22;8185;57.818;15.224;2024-03-02T08:05:59;3.60;99.90
16160;DHT22;8185;57.818;15.224;2024-03-02T08:08:26;3.70;99.90
16160;DHT22;8185;57.818;15.224;2024-03-02T08:10:55;3.60;99.90
16160;DHT22;8185;57.818;15.224;2024-03-02T08:13:23;3.60;99.90
16160;DHT22;8185;57.818;15.224;2024-03-02T08:15:51;3.80;99.90
16160;DHT22;8185;57.818;15.224;2024-03-02T08:18:19;3.70;99.90
16160;DHT22;8185;57.818;15.224;2024-03-02T08:20:48;3.70;99.90
16160;DHT22;8185;57.818;15.224;2024-03-02T08:23:17;3.70;99.90
16160;DHT22;8185;57.818;15.224;2024-03-02T08:25:45;3.70;99.90
16160;DHT22;8185;57.818;15.224;2024-03-02T08:28:14;3.80;99.90
16160;DHT22;8185;57.818;15.224;2024-03-02T08:30:42;3.80;99.90
16160;DHT22;8185;57.818;15.224;2024-03-02T08:33:10;3.90;99.90
16160;DHT22;8185;57.818;15.224;2024-03-02T08:35:38;4.00;99.90
16160;DHT22;8185;57.818;15.224;2024-03-02T08:38:07;4.00;99.90
16160;DHT22;8185;57.818;15.224;2024-03-02T08:40:35;3.90;99.90
16160;DHT22;8185;57.818;15.224;2024-03-02T08:43:04;4.00;99.90
16160;DHT22;8185;57.818;15.224;2024-03-02T08:45:32;4.00;99.90
16160;DHT22;8185;57.818;15.224;2024-03-02T08:48:01;4.10;99.90
16160;DHT22;8185;57.818;15.224;2024-03-02T08:50:29;4.10;99.90
16160;DHT22;8185;57.818;15.224;2024-03-02T08:52:57;4.20;99.90
16160;DHT22;8185;57.818;15.224;2024-03-02T08:55:27;4.10;99.90
16160;DHT22;8185;57.818;15.224;2024-03-02T08:57:55;4.10;99.90
16160;DHT22;8185;57.818;15.224;2024-03-02T09:00:24;4.10;99.90
16160;DHT22;8185;57.818;15.224;2024-03-02T09:02:53;4.10;99.90
16160;DHT22;8185;57.818;15.224;2024-03-02T09:05:21;4.20;99.90
16160;DHT22;8185;57.818;15.224;2024-03-02T09:07:52;4.10;99.90
16160;DHT22;8185;57.818;15.224;2024-03-02T09:10:20;4.20;99.90
16160;DHT22;8185;57.818;15.224;2024-03-02T09:12:49;4.20;99.90
16160;DHT22;8185;57.818;15.224;2024-03-02T09:15:18;4.30;99.90
16160;DHT22;8185;57.818;15.224;2024-03-02T09:17:46;4.40;99.90
16160;DHT22;8185;57.818;15.224;2024-03-02T09:20:15;4.40;99.90
16160;DHT22;8185;57.818;15.224;2024-03-02T09:22:43;4.60;99.90
16160;DHT22;8185;57.818;15.224;2024-03-02T09:25:14;4.60;99.90
16160;DHT22;8185;57.818;15.224;2024-03-02T09:27:42;4.70;99.90
16160;DHT22;8185;57.818;15.224;2024-03-02T09:30:12;4.80;99.90
16160;DHT22;8185;57.818;15.224;2024-03-02T09:32:41;4.70;99.90
16160;DHT22;8185;57.818;15.224;2024-03-02T09:35:09;4.60;99.90
16160;DHT22;8185;57.818;15.224;2024-03-02T09:37:38;4.50;99.90
16160;DHT22;8185;57.818;15.224;2024-03-02T09:40:07;4.50;99.90
16160;DHT22;8185;57.818;15.224;2024-03-02T09:42:36;4.50;99.90
16160;DHT22;8185;57.818;15.224;2024-03-02T09:45:05;4.50;99.90
16160;DHT22;8185;57.818;15.224;2024-03-02T09:47:34;4.60;99.90
16160;DHT22;8185;57.818;15.224;2024-03-02T09:50:03;4.60;99.90
16160;DHT22;8185;57.818;15.224;2024-03-02T09:52:32;4.60;99.90
16160;DHT22;8185;57.818;15.224;2024-03-02T09:55:00;4.70;99.90
16160;DHT22;8185;57.818;15.224;2024-03-02T09:57:28;4.70;99.90
16160;DHT22;8185;57.818;15.224;2024-03-02T09:59:57;4.80;99.90
16160;DHT22;8185;57.818;15.224;2024-03-02T10:02:25;4.80;99.90
16160;DHT22;8185;57.818;15.224;2024-03-02T10:04:54;4.80;99.90
16160;DHT22;8185;57.818;15.224;2024-03-02T10:07:22;4.70;99.90
16160;DHT22;8185;57.818;15.224;2024-03-02T10:09:51;4.80;99.90
16160;DHT22;8185;57.818;15.224;2024-03-02T10:12:19;4.80;99.90
16160;DHT22;8185;57.818;15.224;2024-03-02T10:14:49;4.70;99.90
16160;DHT22;8185;57.818;15.224;2024-03-02T10:17:19;4.70;99.90
16160;DHT22;8185;57.818;15.224;2024-03-02T10:19:47;4.60;99.90
16160;DHT22;8185;57.818;15.224;2024-03-02T10:22:17;4.60;99.90
16160;DHT22;8185;57.818;15.224;2024-03-02T10:24:45;4.50;99.90
16160;DHT22;8185;57.818;15.224;2024-03-02T10:27:16;4.60;99.90
16160;DHT22;8185;57.818;15.224;2024-03-02T10:29:46;4.50;99.90
16160;DHT22;8185;57.818;15.224;2024-03-02T10:32:15;4.50;99.90
16160;DHT22;8185;57.818;15.224;2024-03-02T10:34:45;4.50;99.90
16160;DHT22;8185;57.818;15.224;2024-03-02T10:37:14;4.50;99.90
16160;DHT22;8185;57.818;15.224;2024-03-02T10:39:46;4.50;99.90
16160;DHT22;8185;57.818;15.224;2024-03-02T10:42:15;4.40;99.90
16160;DHT22;8185;57.818;15.224;2024-03-02T10:44:44;4.50;99.90
16160;DHT22;8185;57.818;15.224;2024-03-02T10:47:12;4.50;99.90
16160;DHT22;8185;57.818;15.224;2024-03-02T10:49:42;4.50;99.90
16160;DHT22;8185;57.818;15.224;2024-03-02T10:52:11;4.50;99.90
16160;DHT22;8185;57.818;15.224;2024-03-02T10:54:39;4.50;99.90
16160;DHT22;8185;57.818;15.224;2024-03-02T10:57:11;4.50;99.90
16160;DHT22;8185;57.818;15.224;2024-03-02T10:59:45;4.50;99.90
16160;DHT22;8185;57.818;15.224;2024-03-02T11:02:16;4.40;99.90
16160;DHT22;8185;57.818;15.224;2024-03-02T11:04:46;4.50;99.90
16160;DHT22;8185;57.818;15.224;2024-03-02T11:07:15;4.50;99.90
16160;DHT22;8185;57.818;15.224;2024-03-02T11:09:49;4.50;99.90
16160;DHT22;8185;57.818;15.224;2024-03-02T11:12:28;4.40;99.90
16160;DHT22;8185;57.818;15.224;2024-03-02T11:14:58;4.50;99.90
16160;DHT22;8185;57.818;15.224;2024-03-02T11:17:28;4.50;99.90
16160;DHT22;8185;57.818;15.224;2024-03-02T11:19:56;4.50;99.90
16160;DHT22;8185;57.818;15.224;2024-03-02T11:22:25;4.50;99.90
16160;DHT22;8185;57.818;15.224;2024-03-02T11:24:54;4.50;99.90
16160;DHT22;8185;57.818;15.224;2024-03-02T11:30:52;4.60;99.90
16160;DHT22;8185;57.818;15.224;2024-03-02T11:33:24;4.40;99.90
16160;DHT22;8185;57.818;15.224;2024-03-02T11:35:56;4.50;99.90
16160;DHT22;8185;57.818;15.224;2024-03-02T11:38:31;4.50;99.90
16160;DHT22;8185;57.818;15.224;2024-03-02T11:41:01;4.50;99.90
16160;DHT22;8185;57.818;15.224;2024-03-02T11:43:29;4.50;99.90
16160;DHT22;8185;57.818;15.224;2024-03-02T11:46:04;4.50;99.90
16160;DHT22;8185;57.818;15.224;2024-03-02T11:48:35;4.60;99.90
16160;DHT22;8185;57.818;15.224;2024-03-02T11:51:03;4.60;99.90
16160;DHT22;8185;57.818;15.224;2024-03-02T11:53:31;4.60;99.90
16160;DHT22;8185;57.818;15.224;2024-03-02T11:56:02;4.50;99.90
16160;DHT22;8185;57.818;15.224;2024-03-02T11:58:35;4.50;99.90
16160;DHT22;8185;57.818;15.224;2024-03-02T12:01:05;4.60;99.90
16160;DHT22;8185;57.818;15.224;2024-03-02T12:03:34;4.50;99.90
16160;DHT22;8185;57.818;15.224;2024-03-02T12:06:04;4.60;99.90
16160;DHT22;8185;57.818;15.224;2024-03-02T12:08:32;4.60;99.90
16160;DHT22;8185;57.818;15.224;2024-03-02T12:11:01;4.60;99.90
16160;DHT22;8185;57.818;15.224;2024-03-02T12:13:29;4.70;99.90
16160;DHT22;8185;57.818;15.224;2024-03-02T12:15:57;4.70;99.90
16160;DHT22;8185;57.818;15.224;2024-03-02T12:18:27;4.80;99.90
16160;DHT22;8185;57.818;15.224;2024-03-02T12:20:55;4.80;99.90
16160;DHT22;8185;57.818;15.224;2024-03-02T12:23:25;4.80;99.90
16160;DHT22;8185;57.818;15.224;2024-03-02T12:25:53;4.90;99.90
16160;DHT22;8185;57.818;15.224;2024-03-02T12:28:21;4.90;99.90
16160;DHT22;8185;57.818;15.224;2024-03-02T12:30:50;4.90;99.90
16160;DHT22;8185;57.818;15.224;2024-03-02T12:33:18;5.00;99.90
16160;DHT22;8185;57.818;15.224;2024-03-02T12:35:49;5.00;99.90
16160;DHT22;8185;57.818;15.224;2024-03-02T12:38:17;5.00;99.90
16160;DHT22;8185;57.818;15.224;2024-03-02T12:40:48;5.10;99.90
16160;DHT22;8185;57.818;15.224;2024-03-02T12:43:16;5.10;99.90
16160;DHT22;8185;57.818;15.224;2024-03-02T12:45:44;5.10;99.90
16160;DHT22;8185;57.818;15.224;2024-03-02T12:48:13;5.10;99.90
16160;DHT22;8185;57.818;15.224;2024-03-02T12:50:42;5.10;99.90
16160;DHT22;8185;57.818;15.224;2024-03-02T12:53:16;5.10;99.90
16160;DHT22;8185;57.818;15.224;2024-03-02T12:55:44;5.20;99.90
16160;DHT22;8185;57.818;15.224;2024-03-02T12:58:18;5.10;99.90
16160;DHT22;8185;57.818;15.224;2024-03-02T13:00:46;5.10;99.90
16160;DHT22;8185;57.818;15.224;2024-03-02T13:03:15;5.20;99.90
16160;DHT22;8185;57.818;15.224;2024-03-02T13:05:48;5.20;99.90
16160;DHT22;8185;57.818;15.224;2024-03-02T13:08:18;5.20;99.90
16160;DHT22;8185;57.818;15.224;2024-03-02T13:10:46;5.20;99.90
16160;DHT22;8185;57.818;15.224;2024-03-02T13:13:15;5.20;99.90
16160;DHT22;8185;57.818;15.224;2024-03-02T13:15:44;5.20;99.90
16160;DHT22;8185;57.818;15.224;2024-03-02T13:18:12;5.20;99.90
16160;DHT22;8185;57.818;15.224;2024-03-02T13:20:40;5.20;99.90
16160;DHT22;8185;57.818;15.224;2024-03-02T13:23:08;5.10;99.90
16160;DHT22;8185;57.818;15.224;2024-03-02T13:25:38;5.10;99.90
16160;DHT22;8185;57.818;15.224;2024-03-02T13:28:06;5.10;99.90
16160;DHT22;8185;57.818;15.224;2024-03-02T13:30:35;5.10;99.90
16160;DHT22;8185;57.818;15.224;2024-03-02T13:33:03;5.10;99.90
16160;DHT22;8185;57.818;15.224;2024-03-02T13:35:32;5.00;99.90
16160;DHT22;8185;57.818;15.224;2024-03-02T13:37:59;5.10;99.90
16160;DHT22;8185;57.818;15.224;2024-03-02T13:40:28;5.10;99.90
16160;DHT22;8185;57.818;15.224;2024-03-02T13:42:59;5.10;99.90
16160;DHT22;8185;57.818;15.224;2024-03-02T13:45:26;5.10;99.90
16160;DHT22;8185;57.818;15.224;2024-03-02T13:47:54;5.20;99.90
16160;DHT22;8185;57.818;15.224;2024-03-02T13:50:22;5.10;99.90
16160;DHT22;8185;57.818;15.224;2024-03-02T13:52:51;5.10;99.90
16160;DHT22;8185;57.818;15.224;2024-03-02T13:55:18;5.10;99.90
16160;DHT22;8185;57.818;15.224;2024-03-02T13:57:47;5.10;99.90
16160;DHT22;8185;57.818;15.224;2024-03-02T14:00:18;5.00;99.90
16160;DHT22;8185;57.818;15.224;2024-03-02T14:02:46;5.10;99.90
16160;DHT22;8185;57.818;15.224;2024-03-02T14:05:16;5.10;99.90
16160;DHT22;8185;57.818;15.224;2024-03-02T14:07:46;5.10;99.90
16160;DHT22;8185;57.818;15.224;2024-03-02T14:10:13;5.00;99.90
16160;DHT22;8185;57.818;15.224;2024-03-02T14:12:42;5.00;99.90
16160;DHT22;8185;57.818;15.224;2024-03-02T14:15:09;5.00;99.90
16160;DHT22;8185;57.818;15.224;2024-03-02T14:17:39;5.00;99.90
16160;DHT22;8185;57.818;15.224;2024-03-02T14:20:08;5.00;99.90
16160;DHT22;8185;57.818;15.224;2024-03-02T14:22:37;5.00;99.90
16160;DHT22;8185;57.818;15.224;2024-03-02T14:25:05;5.00;99.90
16160;DHT22;8185;57.818;15.224;2024-03-02T14:27:33;5.00;99.90
16160;DHT22;8185;57.818;15.224;2024-03-02T14:30:02;5.00;99.90
16160;DHT22;8185;57.818;15.224;2024-03-02T14:32:32;5.00;99.90
16160;DHT22;8185;57.818;15.224;2024-03-02T14:35:01;5.00;99.90
16160;DHT22;8185;57.818;15.224;2024-03-02T14:37:29;5.00;99.90
16160;DHT22;8185;57.818;15.224;2024-03-02T14:39:58;5.00;99.90
16160;DHT22;8185;57.818;15.224;2024-03-02T14:42:26;4.90;99.90
16160;DHT22;8185;57.818;15.224;2024-03-02T14:44:58;5.00;99.90
16160;DHT22;8185;57.818;15.224;2024-03-02T14:47:26;4.90;99.90
16160;DHT22;8185;57.818;15.224;2024-03-02T14:49:54;4.90;99.90
16160;DHT22;8185;57.818;15.224;2024-03-02T14:52:24;4.90;99.90
16160;DHT22;8185;57.818;15.224;2024-03-02T14:54:52;4.90;99.90
16160;DHT22;8185;57.818;15.224;2024-03-02T14:57:20;4.90;99.90
16160;DHT22;8185;57.818;15.224;2024-03-02T14:59:48;4.90;99.90
16160;DHT22;8185;57.818;15.224;2024-03-02T15:02:17;4.90;99.90
16160;DHT22;8185;57.818;15.224;2024-03-02T15:04:45;4.90;99.90
16160;DHT22;8185;57.818;15.224;2024-03-02T15:07:14;4.80;99.90
16160;DHT22;8185;57.818;15.224;2024-03-02T15:09:44;4.80;99.90
16160;DHT22;8185;57.818;15.224;2024-03-02T15:12:12;4.80;99.90
16160;DHT22;8185;57.818;15.224;2024-03-02T15:14:41;4.80;99.90
16160;DHT22;8185;57.818;15.224;2024-03-02T15:17:12;4.80;99.90
16160;DHT22;8185;57.818;15.224;2024-03-02T15:19:42;4.70;99.90
16160;DHT22;8185;57.818;15.224;2024-03-02T15:22:11;4.80;99.90
16160;DHT22;8185;57.818;15.224;2024-03-02T15:24:39;4.70;99.90
16160;DHT22;8185;57.818;15.224;2024-03-02T15:27:08;4.70;99.90
16160;DHT22;8185;57.818;15.224;2024-03-02T15:29:35;4.70;99.90
16160;DHT22;8185;57.818;15.224;2024-03-02T15:32:04;4.70;99.90
16160;DHT22;8185;57.818;15.224;2024-03-02T15:34:33;4.80;99.90
16160;DHT22;8185;57.818;15.224;2024-03-02T15:37:01;4.80;99.90
16160;DHT22;8185;57.818;15.224;2024-03-02T15:39:31;4.80;99.90
16160;DHT22;8185;57.818;15.224;2024-03-02T15:41:58;4.80;99.90
16160;DHT22;8185;57.818;15.224;2024-03-02T15:44:28;4.70;99.90
16160;DHT22;8185;57.818;15.224;2024-03-02T15:46:56;4.70;99.90
16160;DHT22;8185;57.818;15.224;2024-03-02T15:49:25;4.70;99.90
16160;DHT22;8185;57.818;15.224;2024-03-02T15:51:54;4.70;99.90
16160;DHT22;8185;57.818;15.224;2024-03-02T15:54:22;4.70;99.90
16160;DHT22;8185;57.818;15.224;2024-03-02T15:56:50;4.80;99.90
16160;DHT22;8185;57.818;15.224;2024-03-02T15:59:18;4.70;99.90